Time;durP1;ratioP1;P1;durP2;ratioP2;P2;SDS_P1;SDS_P2;PMS_P1;PMS_P2;Temp;Humidity;BMP_temperature;BMP_pressure;BME280_temperature;BME280_humidity;BME280_pressure;Samples;Min_cycle;Max_cycle;Signal;HPM_P1;HPM_P2
2022/04/26 03:37:05;;;;;;;19.37;3.83;;;;;;;11.79;81.96;94438.59;5031585;28;20190;-73
2022/04/26 03:39:33;;;;;;;10.23;4.00;;;;;;;11.81;81.85;94446.16;5019989;28;20281;-74
2022/04/26 03:42:00;;;;;;;12.90;4.40;;;;;;;11.80;82.03;94447.22;5022529;28;20294;-73
2022/04/26 03:44:27;;;;;;;11.97;5.07;;;;;;;11.83;81.96;94449.34;5024651;28;20573;-74
2022/04/26 03:46:54;;;;;;;16.83;6.53;;;;;;;11.87;81.81;94450.47;5025622;28;20665;-74
2022/04/26 03:49:22;;;;;;;19.73;8.20;;;;;;;11.86;81.96;94451.50;5024361;28;20210;-74
2022/04/26 03:51:49;;;;;;;18.40;7.47;;;;;;;11.85;82.17;94453.31;5026897;28;20207;-74
2022/04/26 03:54:16;;;;;;;41.17;8.57;;;;;;;11.85;82.43;94453.31;5025546;28;20205;-72
2022/04/26 03:56:42;;;;;;;18.33;7.10;;;;;;;11.85;82.52;94455.91;5024169;28;20209;-73
2022/04/26 03:59:09;;;;;;;21.53;6.70;;;;;;;11.81;83.04;94461.78;5022593;28;20211;-72
2022/04/26 04:01:36;;;;;;;15.27;5.07;;;;;;;11.86;82.55;94461.91;5026190;28;20238;-72
2022/04/26 04:04:03;;;;;;;24.33;5.97;;;;;;;11.89;82.00;94466.63;5025981;28;20280;-73
2022/04/26 04:06:32;;;;;;;20.90;5.40;;;;;;;11.88;81.81;94468.47;5021652;28;20227;-73
2022/04/26 04:08:58;;;;;;;22.87;5.80;;;;;;;11.87;82.16;94466.88;5024079;28;20207;-73
2022/04/26 04:11:25;;;;;;;19.93;6.10;;;;;;;11.89;82.25;94469.25;5021127;28;20199;-75
2022/04/26 04:13:52;;;;;;;18.27;6.43;;;;;;;11.90;82.53;94473.44;5022429;28;20214;-73
2022/04/26 04:16:19;;;;;;;24.93;6.73;;;;;;;11.91;82.68;94475.03;5023904;28;20198;-73
2022/04/26 04:21:31;;;;;;;28.97;8.27;;;;;;;11.97;82.98;94486.34;5023638;28;20198;-73
2022/04/26 04:23:58;;;;;;;33.27;10.80;;;;;;;11.94;83.36;94487.59;5021937;28;20226;-73
2022/04/26 04:26:25;;;;;;;38.60;10.17;;;;;;;12.00;82.12;94489.28;5022859;28;20242;-74
2022/04/26 04:28:53;;;;;;;35.93;8.30;;;;;;;12.02;81.46;94486.44;5022685;28;20214;-75
2022/04/26 04:31:20;;;;;;;31.47;9.33;;;;;;;12.07;80.92;94484.72;5022010;28;20191;-74
2022/04/26 04:33:46;;;;;;;31.07;9.63;;;;;;;12.16;80.79;94495.56;5020294;28;20257;-75
2022/04/26 04:36:13;;;;;;;30.00;11.50;;;;;;;12.20;80.51;94491.47;5022218;28;20620;-75
2022/04/26 04:38:41;;;;;;;46.57;12.57;;;;;;;12.27;81.51;94494.72;5021831;28;20198;-75
2022/04/26 04:41:08;;;;;;;38.27;10.70;;;;;;;12.34;80.52;94498.81;5019487;28;20202;-74
2022/04/26 04:43:35;;;;;;;42.30;8.97;;;;;;;12.38;79.80;94504.34;5022832;28;20195;-74
2022/04/26 04:46:02;;;;;;;19.00;7.33;;;;;;;12.34;79.47;94503.22;5022723;28;20203;-74
2022/04/26 04:48:29;;;;;;;28.33;6.40;;;;;;;12.33;79.79;94501.63;5021961;28;20202;-75
2022/04/26 04:50:56;;;;;;;37.47;7.07;;;;;;;12.44;79.60;94506.78;5020965;28;20204;-74
2022/04/26 04:53:23;;;;;;;26.10;8.07;;;;;;;12.50;80.02;94498.03;5019478;28;20202;-74
2022/04/26 04:55:51;;;;;;;42.13;7.60;;;;;;;12.65;79.23;94500.13;5022601;28;20195;-75
2022/04/26 04:58:18;;;;;;;28.20;7.90;;;;;;;12.75;78.73;94502.13;5021433;28;20249;-75
2022/04/26 05:00:44;;;;;;;27.83;7.83;;;;;;;12.84;78.46;94503.34;5022697;28;20184;-75
2022/04/26 05:03:11;;;;;;;32.07;7.03;;;;;;;12.98;76.83;94502.81;5021938;28;20677;-75
2022/04/26 05:05:38;;;;;;;30.80;7.70;;;;;;;13.08;76.10;94508.22;5019293;28;20206;-74
2022/04/26 05:08:05;;;;;;;28.60;6.53;;;;;;;13.05;76.28;94506.03;5025542;28;20222;-82
2022/04/26 05:10:33;;;;;;;24.90;6.30;;;;;;;13.17;75.76;94506.00;5019890;28;20206;-74
2022/04/26 05:13:01;;;;;;;19.77;6.73;;;;;;;13.28;74.20;94518.16;5020198;28;20556;-74
2022/04/26 05:15:28;;;;;;;18.57;5.90;;;;;;;13.40;70.44;94510.25;5019164;28;20593;-74
2022/04/26 05:17:55;;;;;;;15.60;5.37;;;;;;;13.49;69.83;94517.47;5020672;28;20597;-72
2022/04/26 05:20:22;;;;;;;10.17;5.50;;;;;;;13.53;68.80;94518.53;5024043;28;20190;-72
2022/04/26 05:25:34;;;;;;;17.83;4.47;;;;;;;13.64;67.24;94520.28;5021714;28;20367;-73
2022/04/26 05:28:03;;;;;;;9.37;3.77;;;;;;;13.64;66.24;94512.47;5021138;28;20244;-73
2022/04/26 05:30:30;;;;;;;8.63;2.90;;;;;;;13.69;64.61;94519.56;5022177;28;20283;-73
2022/04/26 05:32:56;;;;;;;15.73;6.43;;;;;;;13.90;63.38;94523.25;5021132;28;20194;-73
2022/04/26 05:35:23;;;;;;;14.03;5.83;;;;;;;13.98;63.21;94528.06;5019070;28;20214;-73
2022/04/26 05:37:50;;;;;;;14.50;5.50;;;;;;;14.03;63.24;94523.69;5019406;28;20240;-73
2022/04/26 05:40:17;;;;;;;18.90;5.00;;;;;;;14.08;63.79;94526.34;5021144;28;20203;-72
2022/04/26 05:42:44;;;;;;;10.27;3.60;;;;;;;14.14;63.72;94527.22;5021427;28;20207;-73
2022/04/26 05:45:12;;;;;;;10.27;3.07;;;;;;;14.21;63.04;94535.66;5021152;28;20203;-73
2022/04/26 05:47:43;;;;;;;10.07;3.30;;;;;;;14.26;62.93;94530.50;5019667;28;20216;-81
2022/04/26 05:50:11;;;;;;;9.17;3.07;;;;;;;14.26;63.39;94533.09;5020356;28;20574;-80
2022/04/26 05:52:38;;;;;;;7.60;2.77;;;;;;;14.34;63.48;94530.13;5018048;28;20191;-72
2022/04/26 05:55:07;;;;;;;12.30;3.00;;;;;;;14.39;64.02;94535.41;5019856;28;20202;-73
2022/04/26 05:57:37;;;;;;;7.80;3.13;;;;;;;14.46;62.84;94532.59;5019759;28;20242;-73
2022/04/26 06:00:05;;;;;;;10.60;2.60;;;;;;;14.44;62.79;94534.66;5019191;28;20315;-71
2022/04/26 06:02:34;;;;;;;9.07;2.93;;;;;;;14.44;63.07;94534.66;5019099;28;20203;-73
2022/04/26 06:05:00;;;;;;;10.33;2.70;;;;;;;14.59;61.67;94532.22;5019303;28;20206;-72
2022/04/26 06:07:28;;;;;;;8.70;3.20;;;;;;;14.67;61.46;94527.34;5020906;28;20203;-73
2022/04/26 06:09:55;;;;;;;8.87;2.73;;;;;;;14.71;60.31;94525.03;5019735;28;20222;-75
2022/04/26 06:12:23;;;;;;;6.80;2.50;;;;;;;14.75;60.11;94524.28;5021031;28;20195;-73
2022/04/26 06:14:50;;;;;;;7.53;2.50;;;;;;;14.85;60.18;94518.38;5021146;28;20206;-82
2022/04/26 06:17:19;;;;;;;10.20;2.40;;;;;;;14.93;59.86;94514.50;5020027;28;20194;-77
2022/04/26 06:19:48;;;;;;;7.27;2.53;;;;;;;15.02;59.42;94521.66;5020175;28;20565;-77
2022/04/26 06:22:14;;;;;;;10.27;2.90;;;;;;;15.10;59.36;94517.78;5018450;28;20206;-77
2022/04/26 06:24:41;;;;;;;11.43;2.83;;;;;;;15.16;59.35;94512.34;5018084;28;20221;-77
2022/04/26 06:27:11;;;;;;;10.97;2.93;;;;;;;15.21;58.45;94507.16;5019274;28;20235;-76
2022/04/26 06:29:37;;;;;;;6.17;2.70;;;;;;;15.30;58.86;94505.66;5018128;28;20241;-77
2022/04/26 06:32:05;;;;;;;4.23;2.10;;;;;;;15.39;57.57;94499.97;5018838;28;20203;-76
2022/04/26 06:34:32;;;;;;;8.17;2.60;;;;;;;15.43;57.01;94506.28;5017407;28;20190;-76
2022/04/26 06:37:00;;;;;;;10.43;2.70;;;;;;;15.46;57.10;94497.94;5019933;28;20191;-77
2022/04/26 06:39:27;;;;;;;5.77;2.30;;;;;;;15.60;55.62;94499.09;5017466;28;20223;-76
2022/04/26 06:41:54;;;;;;;10.70;3.03;;;;;;;15.65;55.54;94494.69;5014011;28;20199;-80
2022/04/26 06:44:20;;;;;;;4.37;2.20;;;;;;;15.76;54.77;94501.56;5018447;28;20625;-81
2022/04/26 06:46:47;;;;;;;5.53;2.30;;;;;;;15.76;55.08;94501.56;5018310;28;20195;-87
2022/04/26 06:49:14;;;;;;;6.33;2.33;;;;;;;15.82;54.71;94499.75;5018396;28;20209;-77
2022/04/26 06:51:44;;;;;;;11.10;2.63;;;;;;;15.94;54.07;94502.16;5015571;28;20249;-78
2022/04/26 06:54:12;;;;;;;10.97;3.60;;;;;;;15.99;54.34;94496.97;5022243;28;20597;-78
2022/04/26 06:56:40;;;;;;;12.67;2.83;;;;;;;16.02;54.75;94489.38;5015980;28;20202;-81
2022/04/26 06:59:07;;;;;;;17.97;3.23;;;;;;;16.12;53.91;94493.88;5023749;28;20191;-81
2022/04/26 07:01:34;;;;;;;6.70;2.47;;;;;;;16.17;53.21;94475.53;5020565;28;20194;-79
2022/04/26 07:04:01;;;;;;;4.50;2.60;;;;;;;16.32;53.24;94489.50;5020049;28;20191;-74
2022/04/26 07:06:27;;;;;;;13.97;2.47;;;;;;;16.40;53.45;94489.00;5020148;28;20198;-79
2022/04/26 07:08:56;;;;;;;7.87;2.27;;;;;;;16.51;53.37;94497.69;5018425;28;20248;-79
2022/04/26 07:11:24;;;;;;;6.73;2.47;;;;;;;16.61;52.66;94499.59;5017391;28;20194;-83
2022/04/26 07:13:52;;;;;;;5.20;2.37;;;;;;;16.70;52.33;94496.22;5017092;28;20195;-78
2022/04/26 07:16:19;;;;;;;6.13;3.10;;;;;;;16.83;51.11;94500.16;5020024;28;20294;-80
2022/04/26 07:18:46;;;;;;;7.60;2.47;;;;;;;16.88;51.04;94492.31;5019903;28;20661;-82
2022/04/26 07:21:13;;;;;;;8.13;2.50;;;;;;;16.93;50.99;94493.09;5021450;28;20199;-78
2022/04/26 07:23:40;;;;;;;12.07;2.70;;;;;;;17.05;50.01;94490.22;5021346;28;20725;-79
2022/04/26 07:26:06;;;;;;;5.80;2.83;;;;;;;17.14;49.35;94491.28;5023388;28;20199;-78
2022/04/26 07:28:35;;;;;;;10.03;2.60;;;;;;;17.21;49.53;94494.41;5023013;28;20230;-78
2022/04/26 07:31:01;;;;;;;9.80;2.80;;;;;;;17.25;49.23;94495.47;5022723;28;20195;-79
2022/04/26 07:36:13;;;;;;;5.57;2.47;;;;;;;17.46;48.74;94494.41;5021751;28;20221;-79
2022/04/26 07:38:39;;;;;;;6.73;2.50;;;;;;;17.50;48.65;94489.41;5020289;28;20833;-79
2022/04/26 07:41:07;;;;;;;5.57;2.90;;;;;;;17.56;48.45;94494.44;5023077;28;20206;-77
2022/04/26 07:43:36;;;;;;;10.27;3.00;;;;;;;17.67;48.58;94492.56;5022322;28;20635;-78
2022/04/26 07:46:04;;;;;;;6.90;2.40;;;;;;;17.77;48.47;94495.19;5024260;28;20657;-78
2022/04/26 07:48:31;;;;;;;13.52;2.50;;;;;;;17.84;47.90;94494.91;5021890;28;20211;-78
2022/04/26 07:50:58;;;;;;;11.13;2.25;;;;;;;17.95;46.88;94497.25;5022330;28;20206;-79
2022/04/26 07:53:26;;;;;;;4.70;2.17;;;;;;;18.09;45.57;94494.84;5023517;28;20585;-78
2022/04/26 07:55:53;;;;;;;7.22;2.10;;;;;;;18.11;45.56;94490.09;5022696;28;20203;-78
2022/04/26 07:58:20;;;;;;;14.20;2.72;;;;;;;18.12;46.21;94489.06;5022798;28;20198;-78
2022/04/26 08:00:49;;;;;;;6.05;2.05;;;;;;;18.20;46.21;94490.34;5021702;28;20254;-78
2022/04/26 08:03:16;;;;;;;10.00;2.40;;;;;;;18.29;46.31;94489.53;5022826;28;20199;-79
2022/04/26 08:05:43;;;;;;;10.20;2.58;;;;;;;18.39;46.17;94486.84;5022748;28;20198;-79
2022/04/26 08:08:12;;;;;;;11.15;2.60;;;;;;;18.47;45.93;94488.91;5021467;28;20211;-77
2022/04/26 08:10:39;;;;;;;10.05;2.20;;;;;;;18.52;46.04;94496.03;5022763;28;20191;-79
2022/04/26 08:13:06;;;;;;;5.05;2.00;;;;;;;18.55;45.68;94485.75;5023157;28;20203;-78
2022/04/26 08:15:33;;;;;;;6.05;2.15;;;;;;;18.66;45.98;94491.75;5023304;28;20208;-77
2022/04/26 08:18:01;;;;;;;9.27;2.42;;;;;;;18.75;45.79;94489.31;5023381;28;20192;-78
2022/04/26 08:20:27;;;;;;;13.90;2.67;;;;;;;18.79;45.55;94487.72;5021691;28;20202;-78
2022/04/26 08:22:54;;;;;;;7.50;2.50;;;;;;;18.89;45.89;94490.28;5021295;28;20595;-78
2022/04/26 08:28:05;;;;;;;6.75;2.50;;;;;;;19.05;44.99;94483.84;5021179;28;20756;-78
2022/04/26 08:30:32;;;;;;;9.80;2.30;;;;;;;19.11;45.26;94480.91;5020824;28;20191;-77
2022/04/26 08:33:01;;;;;;;6.97;2.40;;;;;;;19.26;45.02;94480.00;5023778;28;20195;-79
2022/04/26 08:35:28;;;;;;;10.93;2.85;;;;;;;19.30;45.59;94480.25;5019368;28;20274;-78
2022/04/26 08:37:55;;;;;;;12.57;3.05;;;;;;;19.38;45.78;94475.19;5020928;28;20187;-78
2022/04/26 08:40:22;;;;;;;6.35;2.60;;;;;;;19.47;46.06;94480.66;5021141;28;20599;-78
2022/04/26 08:42:51;;;;;;;13.68;2.88;;;;;;;19.54;45.74;94481.91;5022290;28;20285;-78
2022/04/26 08:45:20;;;;;;;22.55;3.10;;;;;;;19.62;46.42;94467.34;5022278;28;20670;-79
2022/04/26 08:53:22;;;;;;;13.77;3.55;;;;;;;19.88;47.35;94476.59;5010428;28;20190;-77
2022/04/26 08:55:51;;;;;;;25.10;3.83;;;;;;;19.96;47.55;94475.19;5022507;28;20290;-77
2022/04/26 08:58:19;;;;;;;12.65;4.43;;;;;;;20.06;47.58;94475.06;5021616;28;20619;-77
2022/04/26 09:01:09;;;;;;;13.27;5.07;;;;;;;20.13;46.42;94481.59;5019699;28;20206;-78
2022/04/26 09:03:37;;;;;;;13.68;3.83;;;;;;;20.25;47.14;94478.56;5020850;28;20639;-78
2022/04/26 09:06:07;;;;;;;13.38;3.33;;;;;;;20.38;46.77;94478.66;5020889;28;20229;-78
2022/04/26 09:08:35;;;;;;;18.15;3.30;;;;;;;20.48;46.06;94469.06;5020834;28;20219;-78
2022/04/26 09:11:03;;;;;;;11.45;3.40;;;;;;;20.60;45.95;94458.88;5020764;28;20653;-77
2022/04/26 09:13:39;;;;;;;18.88;3.92;;;;;;;20.79;45.61;94465.72;5021997;28;20197;-77
2022/04/26 09:16:07;;;;;;;18.48;3.08;;;;;;;20.94;45.98;94477.94;5021839;28;20297;-77
2022/04/26 09:18:33;;;;;;;13.43;3.45;;;;;;;21.06;45.37;94467.72;5020532;28;20192;-77
2022/04/26 09:21:11;;;;;;;11.13;3.40;;;;;;;21.22;45.64;94473.56;5022181;28;20208;-77
2022/04/26 09:23:39;;;;;;;17.33;4.18;;;;;;;21.29;45.22;94461.56;5021270;28;20215;-78
2022/04/26 09:26:08;;;;;;;14.57;3.20;;;;;;;21.44;44.17;94465.81;5022853;28;20195;-77
2022/04/26 09:28:36;;;;;;;12.73;3.15;;;;;;;21.58;44.42;94469.28;5020836;28;20694;-76
2022/04/26 09:31:17;;;;;;;16.10;3.80;;;;;;;21.76;43.98;94454.44;5020702;28;20281;-78
2022/04/26 09:33:47;;;;;;;15.38;3.55;;;;;;;21.83;43.74;94460.09;5021322;28;20191;-78
2022/04/26 09:36:17;;;;;;;14.00;3.45;;;;;;;22.00;43.33;94468.28;5020483;28;20274;-76
2022/04/26 09:38:50;;;;;;;7.82;3.20;;;;;;;22.08;43.22;94470.25;5020218;28;20233;-77
2022/04/26 09:41:17;;;;;;;15.20;4.03;;;;;;;22.12;44.02;94460.66;5022008;28;20584;-77
2022/04/26 09:43:44;;;;;;;15.68;3.80;;;;;;;22.31;43.16;94458.66;5021397;28;20199;-77
2022/04/26 09:46:11;;;;;;;15.77;4.05;;;;;;;22.38;42.88;94453.78;5022044;28;20204;-77
2022/04/26 09:48:39;;;;;;;16.60;3.47;;;;;;;22.50;42.52;94459.34;5020739;28;20211;-78
2022/04/26 09:51:08;;;;;;;10.10;3.50;;;;;;;22.53;42.28;94457.97;5022033;28;20199;-77
2022/04/26 09:53:37;;;;;;;19.05;3.80;;;;;;;22.73;42.19;94462.09;5019261;28;20222;-77
2022/04/26 09:56:06;;;;;;;15.95;4.25;;;;;;;22.82;41.50;94455.00;5022159;28;20211;-76
2022/04/26 09:58:34;;;;;;;14.20;4.78;;;;;;;23.02;41.29;94459.84;5019848;28;20578;-77
2022/04/26 10:01:04;;;;;;;17.10;5.13;;;;;;;23.21;39.88;94443.75;5020097;28;20198;-77
2022/04/26 10:03:32;;;;;;;13.50;3.63;;;;;;;23.35;40.36;94444.50;5021267;28;20199;-76
2022/04/26 10:06:03;;;;;;;13.88;3.65;;;;;;;23.41;40.43;94432.69;5019611;28;20637;-78
2022/04/26 10:08:32;;;;;;;15.30;4.15;;;;;;;23.74;39.08;94439.28;5019844;28;20222;-78
2022/04/26 10:11:00;;;;;;;15.32;3.50;;;;;;;23.69;39.34;94445.47;5020910;28;20272;-78
2022/04/26 10:13:35;;;;;;;12.65;3.30;;;;;;;23.91;39.49;94443.88;5020768;28;20658;-79
2022/04/26 10:16:04;;;;;;;20.35;3.60;;;;;;;24.33;38.48;94440.59;5020226;28;20245;-78
2022/04/26 10:18:34;;;;;;;16.77;3.58;;;;;;;24.58;37.83;94441.78;5018664;28;20250;-78
2022/04/26 10:21:02;;;;;;;16.77;3.58;;;;;;;24.77;37.66;94442.25;5020141;28;20674;-78
2022/04/26 10:23:28;;;;;;;14.45;3.85;;;;;;;25.04;37.86;94433.22;5018757;28;20199;-77
2022/04/26 10:26:25;;;;;;;18.98;3.20;;;;;;;25.48;35.92;94440.09;5021675;28;20195;-77
2022/04/26 10:28:55;;;;;;;8.60;3.20;;;;;;;25.65;33.55;94434.75;5019108;28;21096;-78
2022/04/26 10:31:35;;;;;;;8.63;2.95;;;;;;;25.50;33.53;94438.69;5019903;28;20536;-78
2022/04/26 10:34:15;;;;;;;11.55;3.13;;;;;;;25.70;33.42;94437.22;5020436;28;21201;-78
2022/04/26 10:36:42;;;;;;;9.82;3.38;;;;;;;25.93;32.71;94431.34;5020371;28;20202;-77
2022/04/26 10:39:23;;;;;;;7.43;2.45;;;;;;;26.19;31.59;94433.16;5018884;28;20192;-77
2022/04/26 10:41:53;;;;;;;11.93;2.90;;;;;;;26.46;30.95;94422.03;5018646;28;20689;-77
2022/04/26 10:44:26;;;;;;;8.07;2.78;;;;;;;26.41;31.49;94423.00;5021245;28;20281;-77
2022/04/26 10:47:24;;;;;;;11.80;2.97;;;;;;;26.56;32.44;94420.88;5018944;28;20602;-78
2022/04/26 10:49:52;;;;;;;15.48;3.45;;;;;;;26.56;31.93;94419.00;5008525;28;20222;-77
2022/04/26 10:52:49;;;;;;;9.40;3.15;;;;;;;26.34;32.37;94424.63;5019208;28;20653;-78
2022/04/26 10:55:18;;;;;;;8.95;2.90;;;;;;;26.25;31.96;94416.66;5019977;28;20199;-78
2022/04/26 10:57:52;;;;;;;14.35;2.90;;;;;;;25.80;32.48;94410.25;5018935;28;20719;-77
2022/04/26 11:00:25;;;;;;;16.88;3.20;;;;;;;25.95;32.21;94410.50;5019189;28;20187;-78
2022/04/26 11:02:52;;;;;;;6.15;2.72;;;;;;;26.14;31.48;94398.66;5021321;28;20647;-78
2022/04/26 11:05:25;;;;;;;10.43;3.25;;;;;;;26.29;31.12;94398.16;5019471;28;20202;-77
2022/04/26 11:07:53;;;;;;;11.68;3.10;;;;;;;26.71;31.04;94401.63;5018769;28;20191;-78
2022/04/26 11:10:22;;;;;;;10.32;2.33;;;;;;;26.97;29.25;94408.38;5019402;28;20662;-78
2022/04/26 11:12:50;;;;;;;6.25;2.10;;;;;;;27.38;28.58;94412.09;5020288;28;20253;-78
2022/04/26 11:15:20;;;;;;;14.95;2.78;;;;;;;27.88;27.73;94415.34;5021029;28;20195;-78
2022/04/26 11:17:49;;;;;;;11.52;2.40;;;;;;;28.04;27.95;94407.50;5020104;28;20198;-78
2022/04/26 11:20:17;;;;;;;9.07;2.45;;;;;;;28.21;27.08;94393.13;5019140;28;20194;-78
2022/04/26 11:22:49;;;;;;;7.47;2.63;;;;;;;28.27;28.00;94400.59;5018216;28;20198;-77
2022/04/26 11:28:12;;;;;;;7.38;2.45;;;;;;;28.67;27.11;94389.97;5019003;28;20277;-78
2022/04/26 11:30:42;;;;;;;9.63;2.45;;;;;;;28.86;26.60;94403.50;5018570;28;20227;-78
2022/04/26 11:33:11;;;;;;;9.90;2.47;;;;;;;29.14;26.74;94395.53;5017761;28;20184;-78
2022/04/26 11:35:39;;;;;;;11.70;2.67;;;;;;;29.09;26.66;94401.13;5019025;28;20223;-77
2022/04/26 11:38:13;;;;;;;6.60;2.42;;;;;;;29.26;25.83;94398.19;5019954;28;20257;-78
2022/04/26 11:40:42;;;;;;;13.30;2.60;;;;;;;29.48;25.33;94389.59;5020121;28;20199;-78
2022/04/26 11:43:13;;;;;;;11.18;2.42;;;;;;;29.50;25.90;94381.97;5019937;28;20191;-78
2022/04/26 11:45:41;;;;;;;10.18;2.78;;;;;;;29.66;26.07;94382.78;5021588;28;20641;-77
2022/04/26 11:48:10;;;;;;;9.07;2.45;;;;;;;29.62;25.85;94389.16;5018063;28;20195;-78
2022/04/26 11:50:37;;;;;;;11.90;2.50;;;;;;;29.57;26.31;94382.16;5019373;28;20250;-78
2022/04/26 11:53:06;;;;;;;10.23;2.40;;;;;;;28.97;26.09;94380.53;5019884;28;20632;-78
2022/04/26 11:55:35;;;;;;;12.15;2.50;;;;;;;28.45;26.28;94382.41;5020493;28;20631;-78
2022/04/26 11:58:15;;;;;;;6.43;2.60;;;;;;;28.17;26.83;94371.59;5018695;28;20199;-78
2022/04/26 12:00:59;;;;;;;8.55;2.60;;;;;;;27.43;27.87;94371.84;5018125;28;20194;-81
2022/04/26 12:03:28;;;;;;;10.52;2.90;;;;;;;26.68;28.38;94372.94;5023012;28;20192;-81
2022/04/26 12:05:58;;;;;;;6.22;2.30;;;;;;;26.20;28.37;94354.78;5022752;28;20206;-83
2022/04/26 12:08:25;;;;;;;6.32;3.10;;;;;;;26.26;28.81;94354.25;5021858;28;20202;-82
2022/04/26 12:10:52;;;;;;;10.48;2.60;;;;;;;26.41;28.88;94361.69;5022086;28;20192;-82
2022/04/26 12:13:32;;;;;;;12.07;2.90;;;;;;;26.53;28.77;94358.31;5022853;28;20202;-81
2022/04/26 12:16:20;;;;;;;10.95;2.90;;;;;;;26.37;28.96;94352.00;5024335;28;20206;-81
2022/04/26 12:18:49;;;;;;;7.53;2.55;;;;;;;26.77;28.63;94360.31;5018921;28;20588;-82
2022/04/26 12:21:16;;;;;;;10.05;2.72;;;;;;;27.31;28.74;94345.09;5024302;28;20200;-81
2022/04/26 12:23:43;;;;;;;12.35;2.60;;;;;;;27.92;27.65;94359.34;5022139;28;20237;-80
2022/04/26 12:26:10;;;;;;;11.10;2.80;;;;;;;28.27;27.45;94349.00;5027559;28;20191;-80
2022/04/26 12:28:48;;;;;;;8.80;2.85;;;;;;;28.60;27.18;94346.94;5022309;28;20564;-81
2022/04/26 12:31:22;;;;;;;12.48;2.88;;;;;;;28.52;26.65;94361.19;5022326;28;20188;-82
2022/04/26 12:34:12;;;;;;;8.98;2.53;;;;;;;28.72;26.25;94346.16;5021079;28;20191;-82
2022/04/26 12:36:52;;;;;;;6.28;2.67;;;;;;;28.91;25.75;94351.66;5021983;28;20188;-81
2022/04/26 12:39:19;;;;;;;9.65;3.35;;;;;;;28.88;26.50;94345.09;5022405;28;20183;-82
2022/04/26 12:41:50;;;;;;;10.85;2.50;;;;;;;28.97;25.81;94340.38;5021586;28;20194;-81
2022/04/26 12:44:19;;;;;;;10.63;3.60;;;;;;;29.46;25.55;94342.84;5022248;28;20660;-81
2022/04/26 12:50:27;;;;;;;8.52;2.50;;;;;;;29.68;25.58;94343.03;5020699;28;20195;-81
2022/04/26 12:52:41;;;;;;;11.48;2.92;;;;;;;30.49;24.56;94343.41;5019981;28;20225;-81
2022/04/26 12:55:08;;;;;;;13.27;2.67;;;;;;;30.42;24.08;94337.91;5023128;28;20685;-81
2022/04/26 12:57:47;;;;;;;31.33;3.30;;;;;;;30.18;26.07;94338.88;5022707;28;20626;-81
2022/04/26 13:00:18;;;;;;;31.50;3.28;;;;;;;29.91;27.21;94345.91;5022799;28;20182;-81
2022/04/26 13:02:46;;;;;;;14.63;2.80;;;;;;;29.26;27.41;94341.94;5022538;28;20184;-81
2022/04/26 13:05:13;;;;;;;14.77;3.03;;;;;;;28.20;28.55;94351.47;5020018;28;20187;-72
2022/04/26 13:07:39;;;;;;;16.42;3.20;;;;;;;27.60;29.88;94351.09;5021071;28;20195;-82
2022/04/26 13:10:07;;;;;;;18.23;2.63;;;;;;;27.15;30.65;94358.28;5022448;28;20219;-82
2022/04/26 13:12:35;;;;;;;7.82;2.20;;;;;;;27.13;30.84;94355.16;5020768;28;20198;-81
2022/04/26 13:15:02;;;;;;;14.43;2.70;;;;;;;27.18;31.11;94372.88;5022250;28;20199;-82
2022/04/26 13:17:30;;;;;;;32.83;3.90;;;;;;;26.82;30.61;94376.16;5020126;28;20568;-82
2022/04/26 13:19:57;;;;;;;49.15;4.28;;;;;;;26.31;32.01;94369.28;5021766;28;20277;-80
2022/04/26 13:22:23;;;;;;;13.00;2.55;;;;;;;25.67;33.26;94372.06;5021513;28;20201;-82
2022/04/26 13:24:51;;;;;;;28.45;2.92;;;;;;;25.07;33.70;94368.75;5020057;28;20597;-81
2022/04/26 13:27:19;;;;;;;9.32;1.85;;;;;;;24.70;33.97;94378.91;5024335;28;20290;-80
2022/04/26 13:29:48;;;;;;;11.98;2.05;;;;;;;24.71;33.39;94385.78;5021365;28;20289;-76
2022/04/26 13:32:15;;;;;;;11.90;2.22;;;;;;;24.64;32.77;94390.03;5019006;28;20210;-80
2022/04/26 13:34:43;;;;;;;5.35;2.10;;;;;;;24.54;34.28;94380.47;5021541;28;20191;-81
2022/04/26 13:37:10;;;;;;;5.75;1.75;;;;;;;24.81;33.68;94366.13;5020026;28;20192;-80
2022/04/26 13:39:39;;;;;;;7.47;1.85;;;;;;;25.13;32.95;94365.63;5020769;28;20265;-81
2022/04/26 13:42:06;;;;;;;9.93;2.20;;;;;;;25.48;32.83;94369.03;5022227;28;20285;-80
2022/04/26 13:44:33;;;;;;;8.80;2.38;;;;;;;25.65;32.46;94358.31;5024269;28;20285;-82
2022/04/26 13:47:02;;;;;;;7.93;2.13;;;;;;;25.53;33.29;94355.53;5020909;28;20207;-81
2022/04/26 13:49:29;;;;;;;9.32;2.08;;;;;;;25.42;33.54;94348.97;5020249;28;20223;-81
2022/04/26 13:51:57;;;;;;;4.85;2.15;;;;;;;25.21;33.57;94345.41;5022605;28;20200;-81
2022/04/26 13:54:27;;;;;;;8.95;1.80;;;;;;;24.57;35.35;94352.47;5020137;28;20194;-81
2022/04/26 13:56:54;;;;;;;6.05;1.70;;;;;;;24.07;35.77;94349.44;5022047;28;20202;-83
2022/04/26 13:59:22;;;;;;;4.43;1.88;;;;;;;23.55;37.12;94353.81;5021379;28;20555;-83
2022/04/26 14:01:49;;;;;;;6.13;1.85;;;;;;;22.97;38.10;94364.53;5019373;28;20221;-80
2022/04/26 14:04:16;;;;;;;11.40;1.90;;;;;;;22.77;38.67;94365.00;5019696;28;20199;-85
2022/04/26 14:06:43;;;;;;;8.30;2.20;;;;;;;22.77;39.10;94370.31;5020684;28;20273;-82
2022/04/26 14:09:12;;;;;;;11.10;2.20;;;;;;;22.80;39.64;94377.66;5021467;28;20612;-82
2022/04/26 14:11:39;;;;;;;10.45;1.98;;;;;;;22.93;39.65;94384.75;5018736;28;20192;-77
2022/04/26 14:22:19;;;;;;;7.85;2.30;;;;;;;23.24;39.07;94430.66;5018472;28;20681;-84
2022/04/26 14:24:48;;;;;;;5.70;2.40;;;;;;;22.98;39.21;94448.25;5023382;28;20665;-83
2022/04/26 14:27:15;;;;;;;10.07;2.35;;;;;;;22.79;39.75;94451.09;5019632;28;20662;-83
2022/04/26 14:29:42;;;;;;;8.80;2.10;;;;;;;22.53;39.40;94464.06;5019693;28;20622;-86
2022/04/26 14:32:09;;;;;;;4.68;2.05;;;;;;;22.47;40.23;94475.06;5020712;28;20607;-83
2022/04/26 14:34:36;;;;;;;8.93;2.13;;;;;;;22.15;41.02;94478.59;5019235;28;20203;-83
2022/04/26 14:37:04;;;;;;;4.07;1.90;;;;;;;21.89;41.17;94502.09;5018675;28;20260;-82
2022/04/26 14:39:31;;;;;;;16.73;2.78;;;;;;;21.50;43.01;94483.16;5017761;28;20276;-83
2022/04/26 14:41:59;;;;;;;11.57;2.40;;;;;;;21.21;43.97;94485.25;5018351;28;20195;-82
2022/04/26 14:44:26;;;;;;;7.20;2.00;;;;;;;20.88;44.41;94474.56;5021661;28;20207;-84
2022/04/26 14:46:53;;;;;;;9.57;1.77;;;;;;;20.72;45.00;94481.13;5019841;28;20203;-83
2022/04/26 14:49:19;;;;;;;9.75;2.53;;;;;;;20.58;46.03;94482.13;5020535;28;20221;-83
2022/04/26 14:51:47;;;;;;;9.25;2.00;;;;;;;20.16;45.89;94498.72;5020855;28;20206;-83
2022/04/26 14:54:13;;;;;;;15.35;1.90;;;;;;;20.05;45.60;94505.97;5023485;28;20298;-82
2022/04/26 14:56:40;;;;;;;4.88;1.65;;;;;;;19.71;46.06;94521.81;5022604;28;20723;-82
2022/04/26 14:59:09;;;;;;;3.25;1.63;;;;;;;19.87;45.95;94527.75;5020332;28;20748;-81
2022/04/26 15:01:36;;;;;;;5.45;2.00;;;;;;;19.88;45.97;94508.25;5020355;28;20214;-81
2022/04/26 15:04:03;;;;;;;2.58;1.90;;;;;;;19.78;46.68;94511.75;5019663;28;20585;-82
2022/04/26 15:06:30;;;;;;;3.13;1.70;;;;;;;19.62;47.39;94514.81;5018807;28;20655;-82
2022/04/26 15:11:43;;;;;;;3.58;1.77;;;;;;;19.76;48.31;94531.56;5019921;28;20206;-82
2022/04/26 15:16:56;;;;;;;4.30;1.73;;;;;;;19.49;49.66;94518.88;5018694;28;20674;-83
2022/04/26 15:19:22;;;;;;;8.63;1.85;;;;;;;19.53;49.76;94513.84;5019427;28;20281;-79
2022/04/26 15:21:49;;;;;;;5.78;2.00;;;;;;;19.57;49.35;94513.00;5018381;28;20685;-78
2022/04/26 15:24:17;;;;;;;2.30;1.70;;;;;;;19.41;50.24;94516.81;5018352;28;20654;-78
2022/04/26 15:26:44;;;;;;;6.30;2.00;;;;;;;19.37;49.73;94522.88;5021234;28;20192;-79
2022/04/26 15:29:12;;;;;;;12.88;5.15;;;;;;;19.18;50.68;94535.94;5018332;28;20191;-78
2022/04/26 15:31:39;;;;;;;16.23;5.35;;;;;;;19.45;50.68;94523.09;5019386;28;20301;-79
2022/04/26 15:34:06;;;;;;;5.07;2.60;;;;;;;19.59;50.83;94521.44;5020146;28;20238;-77
2022/04/26 15:36:33;;;;;;;9.40;2.60;;;;;;;20.00;49.89;94521.81;5018392;28;20210;-77
2022/04/26 15:39:00;;;;;;;10.45;4.03;;;;;;;20.20;49.60;94526.88;5023795;28;20199;-77
2022/04/26 15:41:27;;;;;;;16.65;7.18;;;;;;;20.21;49.08;94535.59;5023996;28;20199;-78
2022/04/26 15:43:53;;;;;;;6.57;2.80;;;;;;;20.12;49.55;94522.22;5022031;28;20238;-78
2022/04/26 15:46:22;;;;;;;10.40;2.47;;;;;;;20.08;48.95;94523.06;5023608;28;20192;-77
2022/04/26 15:48:49;;;;;;;15.18;2.38;;;;;;;20.01;49.05;94518.13;5021422;28;20200;-78